Terminal Aerodrome Forecast
Issued by NWS

Home | Current Version | Previous Version | Graphics & Text | Print | Product List | Glossary On
Versions: 1 2 3 4 5 6 7 8 9 10 11 12 13 14 15 16 17 18
000
FTUS43 KABR 270521
TAFMBG
TAF
KMBG 270521Z 2706/2806 VRB06KT P6SM SKC
     FM271700 17012KT P6SM BKN250
      TEMPO 2800/2803 -SHRA OVC100
     FM280300 14012KT P6SM -SHRA VCTS SCT040CB OVC060=

USA.gov is the U.S. government's official web portal to all federal, state and local government web resources and services.